sensor_id;sensor_type;location;lat;lon;timestamp;pressure;altitude;pressure_sealevel;temperature;humidity
63654;BME280;49809;47.418;19.080;2023-04-06T00:06:42;100700.06;;;-1.08;72.46
63654;BME280;49809;47.418;19.080;2023-04-06T00:10:18;100695.53;;;-1.14;72.36
63654;BME280;49809;47.418;19.080;2023-04-06T00:13:58;100690.53;;;-1.24;72.25
63654;BME280;49809;47.418;19.080;2023-04-06T00:17:41;100693.59;;;-1.28;73.92
63654;BME280;49809;47.418;19.080;2023-04-06T00:25:17;100686.97;;;-1.39;74.86
63654;BME280;49809;47.418;19.080;2023-04-06T01:48:02;100664.41;;;-2.11;79.84
63654;BME280;49809;47.418;19.080;2023-04-06T01:51:37;100660.84;;;-2.10;80.39
63654;BME280;49809;47.418;19.080;2023-04-06T01:55:05;100655.19;;;-2.14;81.01
63654;BME280;49809;47.418;19.080;2023-04-06T01:58:24;100663.13;;;-2.15;80.77
63654;BME280;49809;47.418;19.080;2023-04-06T02:01:42;100652.75;;;-2.15;80.56
63654;BME280;49809;47.418;19.080;2023-04-06T02:05:08;100655.81;;;-2.20;80.16
63654;BME280;49809;47.418;19.080;2023-04-06T02:08:41;100648.56;;;-2.08;80.82
63654;BME280;49809;47.418;19.080;2023-04-06T02:12:27;100653.06;;;-2.02;78.12
63654;BME280;49809;47.418;19.080;2023-04-06T02:15:59;100653.09;;;-1.78;74.90
63654;BME280;49809;47.418;19.080;2023-04-06T02:19:53;100641.41;;;-1.58;73.18
63654;BME280;49809;47.418;19.080;2023-04-06T02:23:33;100640.87;;;-1.37;70.84
63654;BME280;49809;47.418;19.080;2023-04-06T02:27:14;100631.28;;;-1.28;70.18
63654;BME280;49809;47.418;19.080;2023-04-06T02:30:57;100634.19;;;-1.23;69.37
63654;BME280;49809;47.418;19.080;2023-04-06T02:34:20;100634.38;;;-1.33;69.77
63654;BME280;49809;47.418;19.080;2023-04-06T02:38:29;100630.81;;;-1.40;71.65
63654;BME280;49809;47.418;19.080;2023-04-06T02:41:57;100630.50;;;-1.53;73.06
63654;BME280;49809;47.418;19.080;2023-04-06T02:45:40;100626.78;;;-1.59;73.36
63654;BME280;49809;47.418;19.080;2023-04-06T02:49:23;100627.63;;;-1.66;73.29
63654;BME280;49809;47.418;19.080;2023-04-06T02:53:07;100628.44;;;-1.82;74.40
63654;BME280;49809;47.418;19.080;2023-04-06T02:56:42;100627.81;;;-1.84;75.18
63654;BME280;49809;47.418;19.080;2023-04-06T03:04:13;100623.56;;;-2.01;76.75
63654;BME280;49809;47.418;19.080;2023-04-06T03:08:00;100619.84;;;-2.07;77.44
63654;BME280;49809;47.418;19.080;2023-04-06T03:11:29;100614.66;;;-2.07;77.95
63654;BME280;49809;47.418;19.080;2023-04-06T03:15:05;100617.25;;;-2.15;78.66
63654;BME280;49809;47.418;19.080;2023-04-06T03:18:47;100620.00;;;-2.25;78.37
63654;BME280;49809;47.418;19.080;2023-04-06T03:22:10;100622.09;;;-2.28;79.08
63654;BME280;49809;47.418;19.080;2023-04-06T03:25:50;100621.94;;;-2.27;78.68
63654;BME280;49809;47.418;19.080;2023-04-06T03:29:19;100620.47;;;-2.37;79.05
63654;BME280;49809;47.418;19.080;2023-04-06T03:32:39;100617.38;;;-2.41;79.66
63654;BME280;49809;47.418;19.080;2023-04-06T03:36:17;100625.81;;;-2.39;79.69
63654;BME280;49809;47.418;19.080;2023-04-06T03:39:55;100625.19;;;-2.33;79.85
63654;BME280;49809;47.418;19.080;2023-04-06T03:43:40;100630.37;;;-2.33;79.37
63654;BME280;49809;47.418;19.080;2023-04-06T03:46:44;100625.47;;;-2.36;79.13
63654;BME280;49809;47.418;19.080;2023-04-06T03:50:29;100629.72;;;-2.35;79.35
63654;BME280;49809;47.418;19.080;2023-04-06T03:53:55;100620.63;;;-2.39;79.41
63654;BME280;49809;47.418;19.080;2023-04-06T03:57:16;100625.16;;;-2.41;78.88
63654;BME280;49809;47.418;19.080;2023-04-06T04:01:02;100626.78;;;-2.48;79.62
63654;BME280;49809;47.418;19.080;2023-04-06T04:04:40;100625.16;;;-2.49;80.22
63654;BME280;49809;47.418;19.080;2023-04-06T04:08:05;100633.87;;;-2.50;79.81
63654;BME280;49809;47.418;19.080;2023-04-06T04:11:52;100622.53;;;-2.57;80.50
63654;BME280;49809;47.418;19.080;2023-04-06T04:15:09;100628.84;;;-2.59;81.12
63654;BME280;49809;47.418;19.080;2023-04-06T04:18:26;100626.56;;;-2.62;81.31
63654;BME280;49809;47.418;19.080;2023-04-06T04:21:45;100622.03;;;-2.60;81.40
63654;BME280;49809;47.418;19.080;2023-04-06T04:25:24;100620.88;;;-2.66;81.68
63654;BME280;49809;47.418;19.080;2023-04-06T04:28:52;100612.50;;;-2.52;82.61
63654;BME280;49809;47.418;19.080;2023-04-06T04:32:10;100621.06;;;-2.51;82.43
63654;BME280;49809;47.418;19.080;2023-04-06T04:35:28;100611.72;;;-2.44;81.88
63654;BME280;49809;47.418;19.080;2023-04-06T04:39:08;100612.22;;;-2.33;83.25
63654;BME280;49809;47.418;19.080;2023-04-06T04:42:37;100608.81;;;-2.33;82.90
63654;BME280;49809;47.418;19.080;2023-04-06T04:46:22;100608.34;;;-2.29;82.10
63654;BME280;49809;47.418;19.080;2023-04-06T04:49:39;100602.31;;;-2.21;81.92
63654;BME280;49809;47.418;19.080;2023-04-06T04:53:08;100602.50;;;-2.14;82.07
63654;BME280;49809;47.418;19.080;2023-04-06T04:56:58;100591.34;;;-1.99;81.54
63654;BME280;49809;47.418;19.080;2023-04-06T05:00:16;100590.31;;;-1.73;79.83
63654;BME280;49809;47.418;19.080;2023-04-06T05:03:36;100600.22;;;-1.61;78.23
63654;BME280;49809;47.418;19.080;2023-04-06T05:07:10;100605.03;;;-1.42;76.85
63654;BME280;49809;47.418;19.080;2023-04-06T05:10:45;100602.06;;;-1.22;77.24
63654;BME280;49809;47.418;19.080;2023-04-06T05:14:04;100591.88;;;-1.01;75.33
63654;BME280;49809;47.418;19.080;2023-04-06T05:17:32;100587.09;;;-0.81;75.22
63654;BME280;49809;47.418;19.080;2023-04-06T05:20:56;100578.59;;;-0.45;69.07
63654;BME280;49809;47.418;19.080;2023-04-06T05:24:31;100573.84;;;-0.18;64.54
63654;BME280;49809;47.418;19.080;2023-04-06T05:28:20;100569.09;;;0.08;64.65
63654;BME280;49809;47.418;19.080;2023-04-06T05:31:58;100566.31;;;0.10;63.06
63654;BME280;49809;47.418;19.080;2023-04-06T05:35:52;100565.44;;;0.32;62.92
63654;BME280;49809;47.418;19.080;2023-04-06T05:39:36;100570.00;;;0.30;62.67
63654;BME280;49809;47.418;19.080;2023-04-06T05:43:21;100560.62;;;0.43;62.32
63654;BME280;49809;47.418;19.080;2023-04-06T05:46:46;100560.41;;;0.30;62.26
63654;BME280;49809;47.418;19.080;2023-04-06T05:50:49;100559.16;;;0.41;62.13
63654;BME280;49809;47.418;19.080;2023-04-06T05:54:43;100556.81;;;0.31;62.26
63654;BME280;49809;47.418;19.080;2023-04-06T05:58:28;100550.34;;;0.27;61.80
63654;BME280;49809;47.418;19.080;2023-04-06T06:01:52;100539.94;;;0.57;61.67
63654;BME280;49809;47.418;19.080;2023-04-06T06:05:02;100544.06;;;0.66;61.89
63654;BME280;49809;47.418;19.080;2023-04-06T06:08:11;100551.72;;;0.53;62.21
63654;BME280;49809;47.418;19.080;2023-04-06T06:11:20;100547.06;;;0.63;61.87
63654;BME280;49809;47.418;19.080;2023-04-06T06:14:26;100545.41;;;0.91;61.68
63654;BME280;49809;47.418;19.080;2023-04-06T06:17:32;100537.38;;;1.28;60.35
63654;BME280;49809;47.418;19.080;2023-04-06T06:20:43;100533.03;;;1.36;59.53
63654;BME280;49809;47.418;19.080;2023-04-06T06:23:50;100530.25;;;1.58;59.73
63654;BME280;49809;47.418;19.080;2023-04-06T06:27:26;100535.66;;;1.78;58.16
63654;BME280;49809;47.418;19.080;2023-04-06T06:30:50;100526.91;;;1.64;58.21
63654;BME280;49809;47.418;19.080;2023-04-06T06:34:17;100518.28;;;1.64;57.28
63654;BME280;49809;47.418;19.080;2023-04-06T06:37:46;100520.00;;;2.06;57.24
63654;BME280;49809;47.418;19.080;2023-04-06T06:40:55;100524.03;;;2.43;55.67
63654;BME280;49809;47.418;19.080;2023-04-06T06:44:35;100517.41;;;2.40;55.42
63654;BME280;49809;47.418;19.080;2023-04-06T06:47:44;100517.94;;;2.63;53.46
63654;BME280;49809;47.418;19.080;2023-04-06T06:51:04;100514.41;;;2.84;52.38
63654;BME280;49809;47.418;19.080;2023-04-06T06:54:08;100509.22;;;2.97;51.20
63654;BME280;49809;47.418;19.080;2023-04-06T06:57:27;100505.13;;;2.82;51.36
63654;BME280;49809;47.418;19.080;2023-04-06T07:00:40;100500.31;;;2.79;51.57
63654;BME280;49809;47.418;19.080;2023-04-06T07:03:55;100500.06;;;3.41;50.87
63654;BME280;49809;47.418;19.080;2023-04-06T07:07:32;100503.72;;;3.66;49.77
63654;BME280;49809;47.418;19.080;2023-04-06T07:10:39;100494.84;;;3.67;47.69
63654;BME280;49809;47.418;19.080;2023-04-06T07:13:42;100490.41;;;4.01;47.73
63654;BME280;49809;47.418;19.080;2023-04-06T07:16:47;100494.41;;;4.16;46.33
63654;BME280;49809;47.418;19.080;2023-04-06T07:20:13;100492.72;;;4.42;44.73
63654;BME280;49809;47.418;19.080;2023-04-06T07:23:37;100495.94;;;4.50;44.61
63654;BME280;49809;47.418;19.080;2023-04-06T07:26:42;100491.09;;;4.54;43.41
63654;BME280;49809;47.418;19.080;2023-04-06T07:29:48;100494.53;;;4.54;43.55
63654;BME280;49809;47.418;19.080;2023-04-06T07:32:52;100487.69;;;4.91;42.71
63654;BME280;49809;47.418;19.080;2023-04-06T07:36:06;100496.12;;;5.00;41.65
63654;BME280;49809;47.418;19.080;2023-04-06T07:39:44;100485.81;;;5.05;41.96
63654;BME280;49809;47.418;19.080;2023-04-06T07:42:50;100492.38;;;5.52;40.96
63654;BME280;49809;47.418;19.080;2023-04-06T07:45:54;100485.91;;;5.54;40.55
63654;BME280;49809;47.418;19.080;2023-04-06T07:49:01;100489.91;;;5.82;40.58
63654;BME280;49809;47.418;19.080;2023-04-06T07:52:38;100487.03;;;5.65;40.34
63654;BME280;49809;47.418;19.080;2023-04-06T07:55:48;100483.47;;;5.78;39.54
63654;BME280;49809;47.418;19.080;2023-04-06T07:58:56;100485.06;;;5.85;39.97
63654;BME280;49809;47.418;19.080;2023-04-06T08:02:04;100474.41;;;6.05;39.29
63654;BME280;49809;47.418;19.080;2023-04-06T08:05:07;100475.97;;;6.06;39.31
63654;BME280;49809;47.418;19.080;2023-04-06T08:08:11;100477.91;;;6.17;38.90
63654;BME280;49809;47.418;19.080;2023-04-06T08:11:18;100477.75;;;5.62;40.24
63654;BME280;49809;47.418;19.080;2023-04-06T08:14:21;100468.84;;;6.13;39.86
63654;BME280;49809;47.418;19.080;2023-04-06T08:17:27;100473.50;;;6.11;39.07
63654;BME280;49809;47.418;19.080;2023-04-06T08:20:34;100469.12;;;5.55;40.47
63654;BME280;49809;47.418;19.080;2023-04-06T08:23:57;100478.84;;;6.04;39.34
63654;BME280;49809;47.418;19.080;2023-04-06T08:27:02;100483.00;;;6.12;39.72
63654;BME280;49809;47.418;19.080;2023-04-06T08:30:08;100472.22;;;6.57;39.34
63654;BME280;49809;47.418;19.080;2023-04-06T08:33:12;100482.03;;;6.06;39.18
63654;BME280;49809;47.418;19.080;2023-04-06T08:36:17;100472.62;;;6.53;39.40
63654;BME280;49809;47.418;19.080;2023-04-06T08:39:25;100466.44;;;6.96;38.68
63654;BME280;49809;47.418;19.080;2023-04-06T08:42:36;100463.97;;;6.83;38.90
63654;BME280;49809;47.418;19.080;2023-04-06T08:45:43;100455.19;;;6.89;38.03
63654;BME280;49809;47.418;19.080;2023-04-06T08:48:49;100466.06;;;6.63;39.36
63654;BME280;49809;47.418;19.080;2023-04-06T08:52:27;100448.31;;;6.88;37.48
63654;BME280;49809;47.418;19.080;2023-04-06T09:00:10;100443.50;;;7.15;37.33
63654;BME280;49809;47.418;19.080;2023-04-06T09:03:49;100448.91;;;7.31;37.44
63654;BME280;49809;47.418;19.080;2023-04-06T09:07:16;100448.91;;;7.31;37.59
63654;BME280;49809;47.418;19.080;2023-04-06T09:10:42;100448.97;;;7.55;37.08
63654;BME280;49809;47.418;19.080;2023-04-06T09:14:03;100441.53;;;7.86;36.17
63654;BME280;49809;47.418;19.080;2023-04-06T09:17:51;100441.50;;;7.52;36.44
63654;BME280;49809;47.418;19.080;2023-04-06T09:21:28;100444.47;;;7.43;36.57
63654;BME280;49809;47.418;19.080;2023-04-06T09:25:02;100436.72;;;7.72;37.29
63654;BME280;49809;47.418;19.080;2023-04-06T09:28:49;100436.91;;;7.35;37.15
63654;BME280;49809;47.418;19.080;2023-04-06T09:32:26;100421.91;;;8.06;35.84
63654;BME280;49809;47.418;19.080;2023-04-06T09:36:11;100419.16;;;7.89;35.78
63654;BME280;49809;47.418;19.080;2023-04-06T09:39:41;100418.25;;;7.95;35.26
63654;BME280;49809;47.418;19.080;2023-04-06T09:42:46;100417.44;;;8.69;34.88
63654;BME280;49809;47.418;19.080;2023-04-06T09:45:51;100410.94;;;8.60;34.07
63654;BME280;49809;47.418;19.080;2023-04-06T09:48:56;100404.94;;;8.37;34.65
63654;BME280;49809;47.418;19.080;2023-04-06T09:52:06;100408.47;;;8.19;34.84
63654;BME280;49809;47.418;19.080;2023-04-06T09:55:20;100402.19;;;8.88;34.77
63654;BME280;49809;47.418;19.080;2023-04-06T09:58:49;100401.28;;;8.66;34.10
63654;BME280;49809;47.418;19.080;2023-04-06T10:06:23;100399.72;;;9.15;33.12
63654;BME280;49809;47.418;19.080;2023-04-06T10:09:56;100398.62;;;9.44;33.16
63654;BME280;49809;47.418;19.080;2023-04-06T10:13:03;100390.78;;;9.66;32.20
63654;BME280;49809;47.418;19.080;2023-04-06T10:16:51;100381.00;;;10.49;32.17
63654;BME280;49809;47.418;19.080;2023-04-06T10:20:46;100387.53;;;10.19;31.34
63654;BME280;49809;47.418;19.080;2023-04-06T10:23:58;100386.37;;;9.93;32.30
63654;BME280;49809;47.418;19.080;2023-04-06T10:27:34;100381.69;;;9.79;32.01
63654;BME280;49809;47.418;19.080;2023-04-06T10:31:30;100368.00;;;11.01;30.88
63654;BME280;49809;47.418;19.080;2023-04-06T10:35:08;100359.66;;;11.19;29.47
63654;BME280;49809;47.418;19.080;2023-04-06T10:38:40;100363.53;;;10.48;30.84
63654;BME280;49809;47.418;19.080;2023-04-06T10:42:25;100355.75;;;10.63;31.89
63654;BME280;49809;47.418;19.080;2023-04-06T10:45:39;100351.19;;;11.17;29.46
63654;BME280;49809;47.418;19.080;2023-04-06T10:49:42;100352.13;;;11.38;30.95
63654;BME280;49809;47.418;19.080;2023-04-06T10:53:08;100345.53;;;11.40;29.75
63654;BME280;49809;47.418;19.080;2023-04-06T11:00:33;100334.75;;;11.52;30.18
63654;BME280;49809;47.418;19.080;2023-04-06T11:04:15;100332.50;;;11.39;29.42
63654;BME280;49809;47.418;19.080;2023-04-06T11:07:40;100334.00;;;10.61;30.44
63654;BME280;49809;47.418;19.080;2023-04-06T11:11:17;100328.56;;;11.04;29.67
63654;BME280;49809;47.418;19.080;2023-04-06T11:14:37;100323.66;;;11.18;29.12
63654;BME280;49809;47.418;19.080;2023-04-06T11:18:06;100337.12;;;10.79;30.23
63654;BME280;49809;47.418;19.080;2023-04-06T11:21:38;100329.41;;;11.10;29.35
63654;BME280;49809;47.418;19.080;2023-04-06T11:25:30;100320.72;;;11.19;28.76
63654;BME280;49809;47.418;19.080;2023-04-06T11:29:08;100331.00;;;11.11;28.58
63654;BME280;49809;47.418;19.080;2023-04-06T11:32:21;100319.44;;;10.90;28.82
63654;BME280;49809;47.418;19.080;2023-04-06T11:35:26;100318.44;;;11.33;29.63
63654;BME280;49809;47.418;19.080;2023-04-06T11:38:29;100324.34;;;10.76;29.12
63654;BME280;49809;47.418;19.080;2023-04-06T11:41:33;100311.31;;;10.70;29.13
63654;BME280;49809;47.418;19.080;2023-04-06T11:44:58;100312.34;;;10.64;29.81
63654;BME280;49809;47.418;19.080;2023-04-06T11:48:25;100314.09;;;10.53;29.73
63654;BME280;49809;47.418;19.080;2023-04-06T11:52:01;100312.94;;;11.03;28.64
63654;BME280;49809;47.418;19.080;2023-04-06T11:55:38;100312.00;;;11.61;28.25
63654;BME280;49809;47.418;19.080;2023-04-06T12:02:52;100302.78;;;11.73;27.74
63654;BME280;49809;47.418;19.080;2023-04-06T12:06:32;100293.38;;;12.08;27.29
63654;BME280;49809;47.418;19.080;2023-04-06T12:14:00;100298.81;;;11.34;29.14
63654;BME280;49809;47.418;19.080;2023-04-06T12:43:02;100292.56;;;9.36;33.32
63654;BME280;49809;47.418;19.080;2023-04-06T12:46:37;100278.69;;;10.59;31.76
63654;BME280;49809;47.418;19.080;2023-04-06T12:49:55;100285.50;;;10.50;31.88
63654;BME280;49809;47.418;19.080;2023-04-06T12:53:12;100277.25;;;9.76;33.24
63654;BME280;49809;47.418;19.080;2023-04-06T12:56:57;100282.34;;;9.61;33.07
63654;BME280;49809;47.418;19.080;2023-04-06T17:53:25;100383.75;;;3.24;96.35
63654;BME280;49809;47.418;19.080;2023-04-06T18:01:37;100395.41;;;3.15;96.78
63654;BME280;49809;47.418;19.080;2023-04-06T18:39:28;100416.03;;;2.70;100.00
63654;BME280;49809;47.418;19.080;2023-04-06T18:43:14;100413.00;;;2.60;100.00
63654;BME280;49809;47.418;19.080;2023-04-06T18:47:15;100406.28;;;2.44;100.00
63654;BME280;49809;47.418;19.080;2023-04-06T18:58:21;100417.81;;;2.56;100.00
63654;BME280;49809;47.418;19.080;2023-04-06T19:02:27;100408.94;;;2.51;100.00
63654;BME280;49809;47.418;19.080;2023-04-06T21:16:10;100378.81;;;2.61;100.00
63654;BME280;49809;47.418;19.080;2023-04-06T21:19:49;100373.38;;;2.63;100.00
63654;BME280;49809;47.418;19.080;2023-04-06T21:23:20;100373.56;;;2.55;100.00
63654;BME280;49809;47.418;19.080;2023-04-06T21:26:26;100381.41;;;2.55;100.00
63654;BME280;49809;47.418;19.080;2023-04-06T21:29:49;100380.56;;;2.48;100.00
63654;BME280;49809;47.418;19.080;2023-04-06T21:33:39;100366.28;;;2.44;100.00
63654;BME280;49809;47.418;19.080;2023-04-06T21:37:39;100364.31;;;2.52;100.00
63654;BME280;49809;47.418;19.080;2023-04-06T21:41:12;100365.31;;;2.45;100.00
63654;BME280;49809;47.418;19.080;2023-04-06T21:44:17;100367.69;;;2.40;100.00
63654;BME280;49809;47.418;19.080;2023-04-06T21:48:03;100370.72;;;2.37;99.26
63654;BME280;49809;47.418;19.080;2023-04-06T21:51:41;100365.31;;;2.45;99.83
63654;BME280;49809;47.418;19.080;2023-04-06T21:55:28;100351.41;;;2.38;100.00
63654;BME280;49809;47.418;19.080;2023-04-06T21:59:00;100344.59;;;2.43;100.00
63654;BME280;49809;47.418;19.080;2023-04-06T22:02:40;100346.63;;;2.48;100.00
63654;BME280;49809;47.418;19.080;2023-04-06T22:13:36;100326.53;;;2.42;99.52
63654;BME280;49809;47.418;19.080;2023-04-06T22:16:59;100326.53;;;2.42;99.30
63654;BME280;49809;47.418;19.080;2023-04-06T22:20:48;100323.69;;;2.43;98.41
63654;BME280;49809;47.418;19.080;2023-04-06T22:24:34;100322.50;;;2.46;98.58
63654;BME280;49809;47.418;19.080;2023-04-06T22:28:10;100323.50;;;2.45;98.71
63654;BME280;49809;47.418;19.080;2023-04-06T22:31:43;100329.13;;;2.48;98.74
63654;BME280;49809;47.418;19.080;2023-04-06T22:35:15;100317.28;;;2.52;98.86
63654;BME280;49809;47.418;19.080;2023-04-06T22:38:40;100328.34;;;2.54;99.52
63654;BME280;49809;47.418;19.080;2023-04-06T22:42:10;100324.72;;;2.62;99.41
63654;BME280;49809;47.418;19.080;2023-04-06T22:46:01;100321.75;;;2.65;98.85
63654;BME280;49809;47.418;19.080;2023-04-06T22:49:50;100323.72;;;2.63;98.41
63654;BME280;49809;47.418;19.080;2023-04-06T22:53:16;100322.94;;;2.62;97.49
63654;BME280;49809;47.418;19.080;2023-04-06T22:56:54;100327.34;;;2.62;97.14
63654;BME280;49809;47.418;19.080;2023-04-06T23:00:45;100323.94;;;2.68;95.77
63654;BME280;49809;47.418;19.080;2023-04-06T23:03:48;100318.91;;;2.60;95.31
63654;BME280;49809;47.418;19.080;2023-04-06T23:07:41;100320.31;;;2.56;95.23
63654;BME280;49809;47.418;19.080;2023-04-06T23:11:12;100324.94;;;2.54;95.87
63654;BME280;49809;47.418;19.080;2023-04-06T23:14:59;100320.69;;;2.53;95.29
63654;BME280;49809;47.418;19.080;2023-04-06T23:18:24;100308.06;;;2.56;95.73
63654;BME280;49809;47.418;19.080;2023-04-06T23:21:59;100313.69;;;2.47;96.56
63654;BME280;49809;47.418;19.080;2023-04-06T23:25:44;100315.25;;;2.48;98.29
63654;BME280;49809;47.418;19.080;2023-04-06T23:29:48;100309.62;;;2.44;97.32
63654;BME280;49809;47.418;19.080;2023-04-06T23:33:25;100306.03;;;2.52;98.06
63654;BME280;49809;47.418;19.080;2023-04-06T23:37:17;100303.62;;;2.57;99.45
63654;BME280;49809;47.418;19.080;2023-04-06T23:40:40;100308.47;;;2.60;99.60
63654;BME280;49809;47.418;19.080;2023-04-06T23:44:36;100312.09;;;2.66;99.39
63654;BME280;49809;47.418;19.080;2023-04-06T23:48:18;100312.09;;;2.72;98.90
63654;BME280;49809;47.418;19.080;2023-04-06T23:52:09;100298.00;;;2.73;97.97
63654;BME280;49809;47.418;19.080;2023-04-06T23:55:47;100292.78;;;2.86;96.71
63654;BME280;49809;47.418;19.080;2023-04-06T23:59:30;100288.97;;;2.82;96.33
